Time;durP1;ratioP1;P1;durP2;ratioP2;P2;SDS_P1;SDS_P2;PMS_P1;PMS_P2;Temp;Humidity;BMP_temperature;BMP_pressure;BME280_temperature;BME280_humidity;BME280_pressure;Samples;Min_cycle;Max_cycle;Signal;HPM_P1;HPM_P2
2024/04/01 00:00:09;;;;;;;;;;;;;;;10.92;100.00;93760.81;4951827;28;19958;-69
2024/04/01 00:02:42;;;;;;;;;;;;;;;10.91;100.00;93767.28;4953087;28;19931;-70
2024/04/01 00:05:08;;;;;;;;;;;;;;;10.92;100.00;93766.97;4953848;28;19934;-70
2024/04/01 00:07:34;;;;;;;;;;;;;;;10.89;100.00;93750.69;4954820;28;19930;-71
2024/04/01 00:10:00;;;;;;;;;;;;;;;10.86;100.00;93736.00;4951371;28;20113;-69
2024/04/01 00:12:26;;;;;;;;;;;;;;;10.86;100.00;93727.94;4952569;28;19969;-70
2024/04/01 00:14:52;;;;;;;;;;;;;;;10.88;100.00;93719.56;4956202;28;19938;-70
2024/04/01 00:17:19;;;;;;;;;;;;;;;10.90;100.00;93726.19;4955562;28;20074;-71
2024/04/01 00:19:46;;;;;;;;;;;;;;;10.90;100.00;93712.75;4954732;28;19929;-70
2024/04/01 00:22:12;;;;;;;;;;;;;;;10.84;100.00;93705.97;4954429;28;19930;-70
2024/04/01 00:24:38;;;;;;;;;;;;;;;10.85;100.00;93688.75;4954310;28;19942;-70
2024/04/01 00:27:05;;;;;;;;;;;;;;;10.88;100.00;93698.81;4953914;28;19930;-71
2024/04/01 00:29:31;;;;;;;;;;;;;;;10.86;100.00;93701.06;4959626;28;19949;-70
2024/04/01 00:31:57;;;;;;;;;;;;;;;10.84;100.00;93703.28;4920699;28;19934;-68
2024/04/01 00:34:23;;;;;;;;;;;;;;;10.85;100.00;93696.81;4953508;28;19930;-71
2024/04/01 00:36:50;;;;;;;;;;;;;;;10.85;100.00;93704.88;4954179;28;20033;-71
2024/04/01 00:39:16;;;;;;;;;;;;;;;10.95;100.00;93708.31;4952374;28;20307;-70
2024/04/01 00:41:42;;;;;;;;;;;;;;;11.00;100.00;93708.88;4950880;28;19930;-70
2024/04/01 00:44:08;;;;;;;;;;;;;;;10.95;100.00;93709.09;4954350;28;19957;-69
2024/04/01 00:46:34;;;;;;;;;;;;;;;10.90;100.00;93710.03;4953390;28;20397;-70
2024/04/01 00:49:01;;;;;;;;;;;;;;;10.85;100.00;93704.88;4953449;28;19930;-70
2024/04/01 00:51:28;;;;;;;;;;;;;;;10.85;100.00;93715.63;4952294;28;19938;-70
2024/04/01 00:53:54;;;;;;;;;;;;;;;10.82;100.00;93699.34;4952275;28;19930;-70
2024/04/01 00:56:22;;;;;;;;;;;;;;;10.78;100.00;93696.53;4953201;28;20428;-70
2024/04/01 00:58:51;;;;;;;;;;;;;;;10.79;100.00;93698.13;4953813;28;19934;-70
2024/04/01 01:01:17;;;;;;;;;;;;;;;10.78;100.00;93693.06;4953444;28;19934;-70
2024/04/01 01:03:44;;;;;;;;;;;;;;;10.75;100.00;93685.63;4954454;28;19946;-69
2024/04/01 01:06:13;;;;;;;;;;;;;;;10.74;100.00;93682.16;4952648;28;20309;-70
2024/04/01 01:08:39;;;;;;;;;;;;;;;10.72;100.00;93687.09;4954019;28;19941;-70
2024/04/01 01:11:07;;;;;;;;;;;;;;;10.71;100.00;93673.97;4952020;28;19930;-70
2024/04/01 01:13:33;;;;;;;;;;;;;;;10.73;100.00;93661.00;4953804;28;20297;-70
2024/04/01 01:15:59;;;;;;;;;;;;;;;10.72;100.00;93662.13;4953691;28;19935;-71
2024/04/01 01:18:25;;;;;;;;;;;;;;;10.70;100.00;93658.97;4953863;28;19930;-70
2024/04/01 01:20:51;;;;;;;;;;;;;;;10.73;100.00;93656.44;4950695;28;19930;-71
2024/04/01 01:23:18;;;;;;;;;;;;;;;10.78;100.00;93650.84;4949479;28;20019;-70
2024/04/01 01:25:44;;;;;;;;;;;;;;;10.74;100.00;93638.41;4952629;28;20408;-70
2024/04/01 01:28:10;;;;;;;;;;;;;;;10.71;100.00;93636.34;4950979;28;20246;-69
2024/04/01 01:30:37;;;;;;;;;;;;;;;10.71;100.00;93626.41;4953462;28;20467;-69
2024/04/01 01:33:04;;;;;;;;;;;;;;;10.68;100.00;93621.66;4946293;28;19930;-70
2024/04/01 01:35:31;;;;;;;;;;;;;;;10.66;100.00;93610.47;4955592;28;19934;-69
2024/04/01 01:37:57;;;;;;;;;;;;;;;10.66;100.00;93598.94;4956411;28;20399;-69
2024/04/01 01:40:23;;;;;;;;;;;;;;;10.63;100.00;93591.53;4956122;28;19938;-69
2024/04/01 01:42:50;;;;;;;;;;;;;;;10.62;100.00;93589.94;4952934;28;19930;-71
2024/04/01 01:45:16;;;;;;;;;;;;;;;10.61;100.00;93589.16;4958528;28;19931;-71
2024/04/01 01:47:42;;;;;;;;;;;;;;;10.59;100.00;93583.34;4955886;28;19937;-70
2024/04/01 01:50:08;;;;;;;;;;;;;;;10.56;100.00;93589.34;4958381;28;19934;-70
2024/04/01 01:52:35;;;;;;;;;;;;;;;10.54;100.00;93572.78;4954709;28;20285;-71
2024/04/01 01:55:01;;;;;;;;;;;;;;;10.55;100.00;93579.72;4956743;28;19930;-69
2024/04/01 01:57:27;;;;;;;;;;;;;;;10.53;100.00;93555.06;4957386;28;20292;-69
2024/04/01 01:59:54;;;;;;;;;;;;;;;10.52;100.00;93538.16;4955579;28;19930;-70
2024/04/01 02:02:20;;;;;;;;;;;;;;;10.51;100.00;93520.50;4954089;28;19930;-70
2024/04/01 02:04:46;;;;;;;;;;;;;;;10.51;100.00;93509.75;4954212;28;20537;-71
2024/04/01 02:07:13;;;;;;;;;;;;;;;10.48;100.00;93496.19;4956002;28;19930;-71
2024/04/01 02:09:39;;;;;;;;;;;;;;;10.46;100.00;93498.41;4939747;28;19941;-70
2024/04/01 02:12:07;;;;;;;;;;;;;;;10.49;100.00;93517.34;4957118;28;20817;-70
2024/04/01 02:14:34;;;;;;;;;;;;;;;10.48;100.00;93531.09;4936173;28;19937;-68
2024/04/01 02:17:00;;;;;;;;;;;;;;;10.49;100.00;93530.00;4954818;28;19937;-69
2024/04/01 02:19:26;;;;;;;;;;;;;;;10.50;100.00;93540.41;4941466;28;19937;-70
2024/04/01 02:21:52;;;;;;;;;;;;;;;10.52;100.00;93537.38;4955329;28;19937;-70
2024/04/01 02:24:18;;;;;;;;;;;;;;;10.49;100.00;93530.78;4954862;28;20155;-71
2024/04/01 02:26:46;;;;;;;;;;;;;;;10.46;100.00;93523.38;4955681;28;19930;-69
2024/04/01 02:29:12;;;;;;;;;;;;;;;10.45;100.00;93524.47;4956754;28;20392;-70
2024/04/01 02:31:38;;;;;;;;;;;;;;;10.45;100.00;93516.44;4955681;28;19930;-69
2024/04/01 02:34:05;;;;;;;;;;;;;;;10.44;100.00;93508.72;4955934;28;19937;-70
2024/04/01 02:36:31;;;;;;;;;;;;;;;10.45;100.00;93502.22;4953411;28;19937;-69
2024/04/01 02:38:58;;;;;;;;;;;;;;;10.43;100.00;93491.03;4954742;28;20032;-71
2024/04/01 02:41:24;;;;;;;;;;;;;;;10.43;100.00;93491.03;4953615;28;20109;-70
2024/04/01 02:43:50;;;;;;;;;;;;;;;10.41;100.00;93495.94;4952835;28;19938;-70
2024/04/01 02:46:16;;;;;;;;;;;;;;;10.35;100.00;93499.94;4956236;28;19938;-71
2024/04/01 02:48:42;;;;;;;;;;;;;;;10.32;100.00;93503.25;4955852;28;19930;-69
2024/04/01 02:51:08;;;;;;;;;;;;;;;10.30;100.00;93500.91;4954859;28;19937;-70
2024/04/01 02:53:35;;;;;;;;;;;;;;;10.29;100.00;93495.88;4954864;28;19930;-70
2024/04/01 02:56:01;;;;;;;;;;;;;;;10.29;100.00;93472.50;5328888;23;19937;-69
2024/04/01 02:58:27;;;;;;;;;;;;;;;10.28;100.00;93475.50;4962377;28;19930;-69
2024/04/01 03:00:54;;;;;;;;;;;;;;;10.22;100.00;93482.19;4963056;28;20375;-70
2024/04/01 03:03:20;;;;;;;;;;;;;;;10.22;100.00;93490.25;4964643;28;19934;-70
2024/04/01 03:05:46;;;;;;;;;;;;;;;10.29;100.00;93485.94;4966679;28;20284;-69
2024/04/01 03:08:12;;;;;;;;;;;;;;;10.31;100.00;93472.16;4964923;28;19941;-69
2024/04/01 03:10:39;;;;;;;;;;;;;;;10.28;100.00;93451.34;4966062;28;19937;-69
2024/04/01 03:13:06;;;;;;;;;;;;;;;10.23;100.00;93446.94;4962432;28;19953;-70
2024/04/01 03:15:32;;;;;;;;;;;;;;;10.16;100.00;93439.38;4961861;28;19957;-71
2024/04/01 03:17:59;;;;;;;;;;;;;;;10.16;100.00;93439.38;4947673;28;19929;-70
2024/04/01 03:20:26;;;;;;;;;;;;;;;10.13;100.00;93442.75;4964523;28;19936;-69
2024/04/01 03:22:52;;;;;;;;;;;;;;;10.12;100.00;93462.63;4964161;28;19930;-71
2024/04/01 03:25:18;;;;;;;;;;;;;;;10.13;100.00;93472.25;4964465;28;19941;-68
2024/04/01 03:27:45;;;;;;;;;;;;;;;10.15;100.00;93464.66;4964924;28;19953;-70
2024/04/01 03:30:11;;;;;;;;;;;;;;;10.18;100.00;93457.09;4963467;28;19930;-70
2024/04/01 03:32:37;;;;;;;;;;;;;;;10.15;100.00;93445.09;4964993;28;20443;-69
2024/04/01 03:35:07;;;;;;;;;;;;;;;10.14;100.00;93440.84;4964833;28;19945;-69
2024/04/01 03:37:33;;;;;;;;;;;;;;;10.15;100.00;93461.22;4965416;28;19929;-68
2024/04/01 03:39:59;;;;;;;;;;;;;;;10.15;100.00;93447.78;4963505;28;20372;-70
2024/04/01 03:42:25;;;;;;;;;;;;;;;10.09;100.00;93460.59;4965218;28;20374;-69
2024/04/01 03:44:53;;;;;;;;;;;;;;;10.08;100.00;93448.28;4963764;28;20368;-71
2024/04/01 03:47:20;;;;;;;;;;;;;;;10.06;100.00;93434.41;4962864;28;19937;-70
2024/04/01 03:49:47;;;;;;;;;;;;;;;9.99;100.00;93420.75;4964339;28;19929;-69
2024/04/01 03:52:13;;;;;;;;;;;;;;;10.01;100.00;93433.81;4961532;28;19929;-70
2024/04/01 03:54:39;;;;;;;;;;;;;;;9.99;100.00;93423.44;4962237;28;19929;-69
2024/04/01 03:57:05;;;;;;;;;;;;;;;10.04;100.00;93431.28;4963796;28;19937;-69
2024/04/01 03:59:32;;;;;;;;;;;;;;;10.03;100.00;93464.59;4961839;28;20299;-69
2024/04/01 04:01:58;;;;;;;;;;;;;;;10.03;100.00;93447.69;4961009;28;19934;-70
2024/04/01 04:04:24;;;;;;;;;;;;;;;10.03;100.00;93451.16;4964115;28;19945;-70
2024/04/01 04:06:50;;;;;;;;;;;;;;;10.03;100.00;93448.47;4964320;28;19957;-69
2024/04/01 04:09:17;;;;;;;;;;;;;;;10.05;100.00;93438.22;4964438;28;19937;-70
2024/04/01 04:11:48;;;;;;;;;;;;;;;10.07;100.00;93445.94;4964760;28;19937;-69
2024/04/01 04:14:17;;;;;;;;;;;;;;;10.11;100.00;93462.97;4964024;28;19945;-71
2024/04/01 04:16:44;;;;;;;;;;;;;;;10.14;100.00;93432.78;4963833;28;19958;-70
2024/04/01 04:19:11;;;;;;;;;;;;;;;10.12;100.00;93427.75;4963241;28;19989;-70
2024/04/01 04:21:37;;;;;;;;;;;;;;;10.06;100.00;93455.09;4947067;28;19937;-70
2024/04/01 04:24:03;;;;;;;;;;;;;;;10.04;100.00;93455.44;4964044;28;19936;-69
2024/04/01 04:26:29;;;;;;;;;;;;;;;10.06;100.00;93449.75;4964926;28;19960;-70
2024/04/01 04:28:56;;;;;;;;;;;;;;;10.01;100.00;93434.59;4964903;28;20016;-70
2024/04/01 04:31:22;;;;;;;;;;;;;;;10.02;100.00;93438.84;4962656;28;19929;-70
2024/04/01 04:33:49;;;;;;;;;;;;;;;9.99;100.00;93444.91;4965209;28;20273;-71
2024/04/01 04:36:15;;;;;;;;;;;;;;;9.98;100.00;93437.94;4962750;28;20384;-70
2024/04/01 04:38:41;;;;;;;;;;;;;;;10.05;100.00;93432.84;4963214;28;20450;-68
2024/04/01 04:41:07;;;;;;;;;;;;;;;9.99;100.00;93423.44;4964695;28;19936;-69
2024/04/01 04:43:34;;;;;;;;;;;;;;;10.02;100.00;93430.03;4964586;28;19930;-71
2024/04/01 04:46:00;;;;;;;;;;;;;;;10.07;100.00;93430.63;4963948;28;19944;-71
2024/04/01 04:48:26;;;;;;;;;;;;;;;10.04;100.00;93433.97;4963616;28;20300;-69
2024/04/01 04:50:52;;;;;;;;;;;;;;;10.04;100.00;93433.16;4928355;28;20385;-69
2024/04/01 04:53:19;;;;;;;;;;;;;;;10.09;100.00;93432.97;4963999;28;19930;-71
2024/04/01 04:55:45;;;;;;;;;;;;;;;10.11;100.00;93426.16;4961577;28;19948;-69
2024/04/01 04:58:11;;;;;;;;;;;;;;;10.11;100.00;93428.84;4964755;28;20387;-70
2024/04/01 05:00:37;;;;;;;;;;;;;;;10.13;100.00;93423.94;4963877;28;19930;-69
2024/04/01 05:03:07;;;;;;;;;;;;;;;10.10;100.00;93413.84;4964377;28;20088;-70
2024/04/01 05:05:35;;;;;;;;;;;;;;;10.09;100.00;93417.66;4966033;28;19936;-70
2024/04/01 05:08:03;;;;;;;;;;;;;;;10.12;100.00;93414.31;4967809;28;19934;-71
2024/04/01 05:10:30;;;;;;;;;;;;;;;10.13;100.00;93399.78;4966389;28;19930;-70
2024/04/01 05:12:56;;;;;;;;;;;;;;;10.09;100.00;93396.16;4967577;28;20335;-69
2024/04/01 05:15:23;;;;;;;;;;;;;;;10.09;100.00;93404.22;4968522;28;19948;-70
2024/04/01 05:17:49;;;;;;;;;;;;;;;10.11;100.00;93407.38;4967656;28;19929;-70
2024/04/01 05:20:15;;;;;;;;;;;;;;;10.15;100.00;93400.22;4968269;28;19929;-70
2024/04/01 05:22:41;;;;;;;;;;;;;;;10.10;100.00;93399.63;4951739;28;20383;-70
2024/04/01 05:25:08;;;;;;;;;;;;;;;10.07;100.00;93403.78;4967951;28;19937;-70
2024/04/01 05:27:35;;;;;;;;;;;;;;;10.08;100.00;93399.97;4965306;28;19930;-69
2024/04/01 05:30:03;;;;;;;;;;;;;;;10.08;100.00;93393.84;4967651;28;19933;-69
2024/04/01 05:32:30;;;;;;;;;;;;;;;10.11;100.00;93393.16;4965779;28;19937;-69
2024/04/01 05:34:57;;;;;;;;;;;;;;;10.12;100.00;93398.22;4967613;28;19929;-69
2024/04/01 05:37:23;;;;;;;;;;;;;;;10.16;100.00;93391.06;4965782;28;19952;-70
2024/04/01 05:39:50;;;;;;;;;;;;;;;10.19;100.00;93380.81;4968358;28;19930;-70
2024/04/01 05:42:17;;;;;;;;;;;;;;;10.14;100.00;93377.19;4965191;28;19957;-68
2024/04/01 05:44:44;;;;;;;;;;;;;;;10.18;100.00;93360.44;4966837;28;20375;-69
2024/04/01 05:47:10;;;;;;;;;;;;;;;10.13;100.00;93348.00;4965856;28;20486;-69
2024/04/01 05:49:37;;;;;;;;;;;;;;;10.13;100.00;93359.53;4967416;28;19937;-70
2024/04/01 05:52:03;;;;;;;;;;;;;;;10.15;100.00;93378.00;4967467;28;19952;-70
2024/04/01 05:54:30;;;;;;;;;;;;;;;10.15;100.00;93376.06;4965086;28;19930;-69
2024/04/01 05:56:56;;;;;;;;;;;;;;;10.16;100.00;93380.31;4963049;28;19959;-69
2024/04/01 05:59:24;;;;;;;;;;;;;;;10.13;100.00;93380.22;4962110;28;19934;-68
2024/04/01 06:01:50;;;;;;;;;;;;;;;10.12;100.00;93381.31;4961382;28;19938;-70
2024/04/01 06:04:16;;;;;;;;;;;;;;;10.12;100.00;93368.69;4963494;28;19937;-68
2024/04/01 06:06:42;;;;;;;;;;;;;;;10.18;100.00;93376.56;4963518;28;19930;-69
2024/04/01 06:09:09;;;;;;;;;;;;;;;10.24;100.00;93383.28;4961475;28;20634;-70
2024/04/01 06:11:35;;;;;;;;;;;;;;;10.27;100.00;93374.59;4962572;28;19930;-69
2024/04/01 06:14:01;;;;;;;;;;;;;;;10.32;100.00;93366.31;4962141;28;19930;-69
2024/04/01 06:16:28;;;;;;;;;;;;;;;10.44;100.00;93379.81;4960700;28;20372;-69
2024/04/01 06:18:54;;;;;;;;;;;;;;;10.41;100.00;93372.41;4962380;28;19945;-69
2024/04/01 06:21:20;;;;;;;;;;;;;;;10.39;100.00;93377.31;4961457;28;19930;-70
2024/04/01 06:23:46;;;;;;;;;;;;;;;10.45;100.00;93375.97;4962650;28;19937;-69
2024/04/01 06:26:13;;;;;;;;;;;;;;;10.41;100.00;93356.28;4946351;28;19937;-70
2024/04/01 06:28:40;;;;;;;;;;;;;;;10.52;100.00;93344.00;4961943;28;20556;-69
2024/04/01 06:31:06;;;;;;;;;;;;;;;10.50;100.00;93344.34;4961699;28;19938;-69
2024/04/01 06:33:35;;;;;;;;;;;;;;;10.53;100.00;93356.31;4959142;28;19930;-70
2024/04/01 06:36:04;;;;;;;;;;;;;;;10.61;100.00;93358.13;4963181;28;19934;-69
2024/04/01 06:38:31;;;;;;;;;;;;;;;10.59;100.00;93355.00;4960504;28;19930;-69
2024/04/01 06:40:58;;;;;;;;;;;;;;;10.64;100.00;93365.53;4960248;28;19934;-70
2024/04/01 06:43:24;;;;;;;;;;;;;;;10.83;100.00;93363.09;4962779;28;19938;-71
2024/04/01 06:45:57;;;;;;;;;;;;;;;10.79;100.00;93354.13;4962828;28;19937;-70
2024/04/01 06:48:24;;;;;;;;;;;;;;;10.80;100.00;93350.34;4960267;28;19930;-71
2024/04/01 06:50:51;;;;;;;;;;;;;;;10.96;100.00;93352.38;4961968;28;19937;-69
2024/04/01 06:53:17;;;;;;;;;;;;;;;11.12;100.00;93345.19;4960442;28;19930;-70
2024/04/01 06:55:43;;;;;;;;;;;;;;;11.00;100.00;93350.56;4963728;28;19929;-70
2024/04/01 06:58:10;;;;;;;;;;;;;;;10.94;100.00;93382.25;4965810;28;19945;-69
2024/04/01 07:00:36;;;;;;;;;;;;;;;11.05;100.00;93393.34;4964832;28;19952;-70
2024/04/01 07:03:03;;;;;;;;;;;;;;;11.04;100.00;93394.47;4962475;28;20510;-71
2024/04/01 07:05:30;;;;;;;;;;;;;;;10.98;100.00;93398.50;4964803;28;19929;-70
2024/04/01 07:07:56;;;;;;;;;;;;;;;11.01;100.00;93395.16;4964598;28;19934;-70
2024/04/01 07:10:22;;;;;;;;;;;;;;;11.05;100.00;93425.63;4964866;28;20070;-69
2024/04/01 07:12:48;;;;;;;;;;;;;;;11.08;100.00;93415.00;4964323;28;19929;-69
2024/04/01 07:15:15;;;;;;;;;;;;;;;11.09;100.00;93431.91;4965344;28;20685;-69
2024/04/01 07:17:43;;;;;;;;;;;;;;;11.05;100.00;93436.38;4965968;28;19929;-69
2024/04/01 07:20:09;;;;;;;;;;;;;;;11.07;100.00;93424.16;4963644;28;19929;-70
2024/04/01 07:22:36;;;;;;;;;;;;;;;11.09;100.00;93431.91;4965359;28;19930;-69
2024/04/01 07:25:04;;;;;;;;;;;;;;;11.16;100.00;93416.00;4961448;28;20272;-70
2024/04/01 07:27:34;;;;;;;;;;;;;;;11.20;100.00;93444.56;4963772;28;20506;-70
2024/04/01 07:30:04;;;;;;;;;;;;;;;11.17;100.00;93482.91;4962053;28;20392;-69
2024/04/01 07:32:32;;;;;;;;;;;;;;;11.20;100.00;93487.59;4964081;28;19934;-71
2024/04/01 07:34:58;;;;;;;;;;;;;;;11.20;100.00;93482.22;4965793;28;19934;-70
2024/04/01 07:37:25;;;;;;;;;;;;;;;11.48;100.00;93471.59;4964661;28;19930;-69
2024/04/01 07:39:52;;;;;;;;;;;;;;;11.57;100.00;93501.09;4963854;28;19934;-71
2024/04/01 07:42:18;;;;;;;;;;;;;;;11.65;100.00;93517.16;4962663;28;20454;-69
2024/04/01 07:44:44;;;;;;;;;;;;;;;11.66;100.00;93526.81;4965075;28;19984;-71
2024/04/01 07:47:10;;;;;;;;;;;;;;;11.78;100.00;93538.72;4962446;28;19930;-70
2024/04/01 07:49:37;;;;;;;;;;;;;;;11.88;100.00;93554.44;4962320;28;19930;-70
2024/04/01 07:52:03;;;;;;;;;;;;;;;12.11;100.00;93563.63;4965111;28;19930;-73
2024/04/01 07:54:33;;;;;;;;;;;;;;;12.27;100.00;93561.81;4964628;28;19930;-73
2024/04/01 07:57:02;;;;;;;;;;;;;;;12.34;100.00;93553.97;4962349;28;19929;-71
2024/04/01 07:59:31;;;;;;;;;;;;;;;12.47;100.00;93538.56;4962277;28;21311;-72
2024/04/01 08:01:58;;;;;;;;;;;;;;;12.51;100.00;93527.88;4960308;28;20371;-73
2024/04/01 08:04:24;;;;;;;;;;;;;;;12.46;100.00;93535.09;4963920;28;19930;-70
2024/04/01 08:06:50;;;;;;;;;;;;;;;12.63;100.00;93539.44;4964215;28;20303;-70
2024/04/01 08:09:17;;;;;;;;;;;;;;;12.68;100.00;93565.38;4961981;28;19929;-70
2024/04/01 08:11:46;;;;;;;;;;;;;;;12.59;100.00;93572.78;4963928;28;19930;-70
2024/04/01 08:14:12;;;;;;;;;;;;;;;12.66;100.00;93579.19;4964751;28;19986;-71
2024/04/01 08:16:38;;;;;;;;;;;;;;;12.63;100.00;93611.44;4964307;28;19952;-69
2024/04/01 08:19:05;;;;;;;;;;;;;;;12.58;100.00;93631.28;4960237;28;20445;-69
2024/04/01 08:21:31;;;;;;;;;;;;;;;12.52;100.00;93648.03;4958614;28;19937;-71
2024/04/01 08:23:57;;;;;;;;;;;;;;;12.46;100.00;93672.53;4956823;28;19934;-69
2024/04/01 08:26:23;;;;;;;;;;;;;;;12.42;100.00;93681.59;4960496;28;19930;-72
2024/04/01 08:28:52;;;;;;;;;;;;;;;12.16;100.00;93690.00;4959391;28;20001;-74
2024/04/01 08:31:19;;;;;;;;;;;;;;;12.12;100.00;93688.31;4962594;28;19945;-70
2024/04/01 08:33:45;;;;;;;;;;;;;;;12.00;100.00;93707.91;4962563;28;19930;-71
2024/04/01 08:36:12;;;;;;;;;;;;;;;11.88;100.00;93724.03;4960782;28;19949;-71
2024/04/01 08:38:38;;;;;;;;;;;;;;;11.91;100.00;93736.81;4957858;28;19930;-74
2024/04/01 08:41:18;;;;;;;;;;;;;;;11.96;100.00;93758.16;4965105;28;19930;-71
2024/04/01 08:50:04;;;;;;;;;;;;;;;12.00;100.00;93804.84;4488452;23;21868;-71
2024/04/01 08:52:34;;;;;;;;;;;;;;;11.94;100.00;93838.47;4930132;28;20391;-74
2024/04/01 08:55:00;;;;;;;;;;;;;;;11.82;100.00;93851.88;4945225;28;19930;-73
2024/04/01 09:03:52;;;;;;;;;;;;;;;11.49;100.00;93844.47;4972248;28;20303;-71
2024/04/01 09:06:19;;;;;;;;;;;;;;;11.42;100.00;93838.81;4961261;28;20791;-72
2024/04/01 09:08:46;;;;;;;;;;;;;;;11.26;100.00;93845.84;4962138;28;19930;-70
2024/04/01 09:11:13;;;;;;;;;;;;;;;11.30;100.00;93852.19;4961430;28;19929;-75
2024/04/01 09:13:39;;;;;;;;;;;;;;;11.35;100.00;93870.81;4959703;28;19949;-74
2024/04/01 09:16:06;;;;;;;;;;;;;;;11.24;100.00;93869.63;4960763;28;19937;-74
2024/04/01 09:18:36;;;;;;;;;;;;;;;11.09;100.00;93888.97;4958409;28;19954;-72
2024/04/01 09:21:06;;;;;;;;;;;;;;;11.06;100.00;93873.47;4961234;28;19930;-72
2024/04/01 09:23:32;;;;;;;;;;;;;;;11.16;100.00;93884.69;4958238;28;19953;-72
2024/04/01 09:25:59;;;;;;;;;;;;;;;11.32;100.00;93903.75;4962861;28;19936;-71
2024/04/01 09:28:25;;;;;;;;;;;;;;;11.27;100.00;93909.28;4959630;28;19930;-74
2024/04/01 09:30:52;;;;;;;;;;;;;;;11.11;100.00;93913.63;4958905;28;20291;-73
2024/04/01 09:33:18;;;;;;;;;;;;;;;11.01;100.00;93939.00;4957002;28;19970;-73
2024/04/01 09:35:47;;;;;;;;;;;;;;;11.04;100.00;93950.97;4959787;28;19929;-72
2024/04/01 09:38:13;;;;;;;;;;;;;;;10.91;100.00;93950.88;4961145;28;19937;-70
2024/04/01 09:40:39;;;;;;;;;;;;;;;10.78;100.00;93956.44;4942760;28;19937;-73
2024/04/01 09:43:06;;;;;;;;;;;;;;;10.86;100.00;93945.66;4958436;28;19937;-75
2024/04/01 09:45:39;;;;;;;;;;;;;;;10.78;100.00;93954.53;4959144;28;19930;-72
2024/04/01 09:48:07;;;;;;;;;;;;;;;10.55;100.00;93958.50;4962218;28;21470;-73
2024/04/01 09:50:34;;;;;;;;;;;;;;;10.56;100.00;93970.84;4956340;28;19938;-75
2024/04/01 09:53:00;;;;;;;;;;;;;;;10.51;100.00;93971.00;4956795;28;19930;-75
2024/04/01 09:55:28;;;;;;;;;;;;;;;10.61;100.00;93962.59;4959559;28;20777;-71
2024/04/01 09:58:24;;;;;;;;;;;;;;;10.51;100.00;93962.94;4957598;28;19930;-73
2024/04/01 10:00:51;;;;;;;;;;;;;;;10.45;100.00;93977.63;4958501;28;19940;-76
2024/04/01 10:03:21;;;;;;;;;;;;;;;10.50;100.00;93982.84;4955850;28;19930;-70
2024/04/01 10:05:53;;;;;;;;;;;;;;;10.53;100.00;93990.25;4940775;28;20270;-75
2024/04/01 10:08:35;;;;;;;;;;;;;;;10.54;100.00;94005.28;4956519;28;19937;-71
2024/04/01 10:11:26;;;;;;;;;;;;;;;10.59;100.00;94007.03;4967004;28;19935;-73
2024/04/01 10:13:52;;;;;;;;;;;;;;;10.43;100.00;94001.34;4955347;28;20389;-76
2024/04/01 10:16:22;;;;;;;;;;;;;;;10.49;100.00;94008.94;4956123;28;19930;-73
2024/04/01 10:18:58;;;;;;;;;;;;;;;10.48;100.00;94009.25;4954238;28;20356;-74
2024/04/01 10:21:55;;;;;;;;;;;;;;;10.43;100.00;94002.13;4940647;28;20407;-78
2024/04/01 10:24:40;;;;;;;;;;;;;;;10.37;100.00;94019.53;4953963;28;19934;-74
2024/04/01 10:27:25;;;;;;;;;;;;;;;10.24;100.00;94023.13;4971842;28;19930;-73
2024/04/01 10:29:52;;;;;;;;;;;;;;;10.15;100.00;94025.75;4954861;28;20289;-74
2024/04/01 10:32:21;;;;;;;;;;;;;;;10.12;100.00;94039.81;4954630;28;20403;-73
2024/04/01 10:35:03;;;;;;;;;;;;;;;9.94;100.00;94032.81;4950839;28;20266;-77
2024/04/01 10:37:56;;;;;;;;;;;;;;;9.80;100.00;94037.50;4953046;28;19969;-73
2024/04/01 10:40:33;;;;;;;;;;;;;;;9.68;100.00;94053.41;4927048;28;20313;-73
2024/04/01 10:43:18;;;;;;;;;;;;;;;9.66;100.00;94063.66;4954182;28;20810;-76
2024/04/01 10:45:50;;;;;;;;;;;;;;;9.65;100.00;94072.81;4955363;28;20300;-74
2024/04/01 10:48:17;;;;;;;;;;;;;;;9.66;100.00;94060.97;4938589;28;19930;-74
2024/04/01 10:50:44;;;;;;;;;;;;;;;9.66;100.00;94071.72;4954554;28;19931;-75
2024/04/01 10:53:14;;;;;;;;;;;;;;;9.61;100.00;94088.75;4956794;28;19930;-75
2024/04/01 10:56:14;;;;;;;;;;;;;;;9.66;100.00;94079.75;4951911;28;19961;-75
2024/04/01 10:58:40;;;;;;;;;;;;;;;9.81;100.00;94100.03;4955073;28;19937;-75
2024/04/01 11:01:16;;;;;;;;;;;;;;;9.81;100.00;94103.50;4953550;28;20612;-77
2024/04/01 11:03:58;;;;;;;;;;;;;;;9.85;100.00;94103.69;4938301;28;20388;-76
2024/04/01 11:06:37;;;;;;;;;;;;;;;9.99;100.00;94115.91;4953377;28;19931;-73
2024/04/01 11:09:03;;;;;;;;;;;;;;;10.12;100.00;94123.03;4956497;28;19930;-76
2024/04/01 11:11:52;;;;;;;;;;;;;;;10.20;100.00;94128.78;4954912;28;19931;-73
2024/04/01 11:14:19;;;;;;;;;;;;;;;10.35;100.00;94147.16;4955273;28;19937;-76
2024/04/01 11:16:51;;;;;;;;;;;;;;;10.39;100.00;94137.38;4952939;28;19938;-74
2024/04/01 11:19:20;;;;;;;;;;;;;;;10.47;100.00;94147.34;4953834;28;19930;-76
2024/04/01 11:21:47;;;;;;;;;;;;;;;10.49;100.00;94147.81;4955300;28;19937;-74
2024/04/01 11:24:33;;;;;;;;;;;;;;;10.51;100.00;94153.69;4938893;28;19945;-73
2024/04/01 11:27:11;;;;;;;;;;;;;;;10.56;100.00;94140.09;4954112;28;19976;-75
2024/04/01 11:30:07;;;;;;;;;;;;;;;10.35;100.00;94149.84;4952615;28;19941;-75
2024/04/01 11:32:35;;;;;;;;;;;;;;;10.53;100.00;94127.28;4950711;28;19931;-73
2024/04/01 11:35:20;;;;;;;;;;;;;;;10.77;100.00;94122.25;4935823;28;19937;-74
2024/04/01 11:38:13;;;;;;;;;;;;;;;10.86;100.00;94122.28;4953654;28;19930;-75
2024/04/01 11:40:39;;;;;;;;;;;;;;;10.88;100.00;94103.94;4951536;28;19937;-74
2024/04/01 11:43:08;;;;;;;;;;;;;;;11.11;100.00;94104.53;4953777;28;19949;-75
2024/04/01 11:45:37;;;;;;;;;;;;;;;11.21;100.00;94115.00;4953128;28;19930;-75
2024/04/01 11:48:04;;;;;;;;;;;;;;;11.22;100.00;94108.50;4951344;28;19930;-74
2024/04/01 11:50:31;;;;;;;;;;;;;;;11.02;100.00;94106.47;4952675;28;19949;-73
2024/04/01 11:53:01;;;;;;;;;;;;;;;11.01;100.00;94107.56;4952799;28;19934;-73
2024/04/01 11:55:28;;;;;;;;;;;;;;;10.94;100.00;94102.69;4953715;28;20327;-76
2024/04/01 11:57:54;;;;;;;;;;;;;;;10.86;100.00;94106.16;4950111;28;19930;-74
2024/04/01 12:00:21;;;;;;;;;;;;;;;10.83;100.00;94102.19;4954567;28;19930;-76
2024/04/01 12:02:54;;;;;;;;;;;;;;;10.68;100.00;94083.84;4951664;28;20205;-75
2024/04/01 12:05:20;;;;;;;;;;;;;;;10.67;100.00;94076.09;4954847;28;19953;-71
2024/04/01 12:07:50;;;;;;;;;;;;;;;10.70;100.00;94065.50;4950114;28;19930;-75
2024/04/01 12:10:16;;;;;;;;;;;;;;;10.66;100.00;94064.56;4950796;28;19930;-75
2024/04/01 12:12:45;;;;;;;;;;;;;;;10.60;100.00;94067.69;4953514;28;20127;-71
2024/04/01 12:15:18;;;;;;;;;;;;;;;10.61;100.00;94088.09;4952608;28;20332;-73
2024/04/01 12:17:46;;;;;;;;;;;;;;;10.67;100.00;94071.50;4935888;28;19942;-74
2024/04/01 12:20:12;;;;;;;;;;;;;;;10.73;100.00;94081.00;4951387;28;20494;-76
2024/04/01 12:22:39;;;;;;;;;;;;;;;10.73;100.00;94077.53;4944061;28;19930;-75
2024/04/01 12:25:07;;;;;;;;;;;;;;;10.75;100.00;94078.00;4951982;28;20380;-76
2024/04/01 12:27:33;;;;;;;;;;;;;;;10.71;100.00;94088.59;4954273;28;19931;-75
2024/04/01 12:30:00;;;;;;;;;;;;;;;10.73;100.00;94094.44;4953766;28;20656;-72
2024/04/01 12:32:27;;;;;;;;;;;;;;;10.74;100.00;94085.25;4951309;28;19931;-74
2024/04/01 12:34:54;;;;;;;;;;;;;;;10.80;100.00;94078.66;4928245;28;19930;-73
2024/04/01 12:37:25;;;;;;;;;;;;;;;11.12;100.00;94071.16;4935600;28;19930;-74
2024/04/01 12:39:51;;;;;;;;;;;;;;;11.17;100.00;94079.88;4951700;28;20590;-73
2024/04/01 12:42:19;;;;;;;;;;;;;;;11.17;100.00;94087.16;4935751;28;19937;-72
2024/04/01 12:44:45;;;;;;;;;;;;;;;10.97;100.00;94096.66;4959883;28;20136;-72
2024/04/01 12:47:13;;;;;;;;;;;;;;;10.88;100.00;94098.56;4936762;28;19938;-72
2024/04/01 12:49:40;;;;;;;;;;;;;;;10.84;100.00;94097.59;4952210;28;19929;-73
2024/04/01 12:52:07;;;;;;;;;;;;;;;10.86;100.00;94111.53;4954670;28;19930;-73
2024/04/01 12:55:01;;;;;;;;;;;;;;;10.75;100.00;94104.88;4951334;28;19937;-73